createdAt,value
2023-03-08T00:02:14.478Z,11.00
2023-03-08T00:04:49.703Z,11.13
2023-03-08T00:07:25.886Z,10.80
2023-03-08T00:10:00.946Z,10.85
2023-03-08T00:12:36.891Z,10.90
2023-03-08T00:15:16.085Z,11.05
2023-03-08T00:17:51.164Z,12.20
2023-03-08T00:20:26.423Z,11.05
2023-03-08T00:23:04.061Z,10.85
2023-03-08T00:25:40.318Z,12.15
2023-03-08T00:28:15.474Z,11.30
2023-03-08T00:30:59.157Z,11.80
2023-03-08T00:33:34.746Z,11.63
2023-03-08T00:36:14.924Z,11.13
2023-03-08T00:38:51.392Z,10.75
2023-03-08T00:41:30.616Z,9.97
2023-03-08T00:44:09.163Z,10.45
2023-03-08T00:46:43.044Z,10.43
2023-03-08T00:49:23.309Z,10.05
2023-03-08T00:52:00.051Z,8.98
2023-03-08T00:54:35.789Z,10.75
2023-03-08T00:57:11.401Z,10.90
2023-03-08T00:59:48.091Z,10.93
2023-03-08T01:02:23.849Z,11.85
2023-03-08T01:05:04.505Z,13.17
2023-03-08T01:07:41.785Z,12.80
2023-03-08T01:10:19.250Z,12.73
2023-03-08T01:12:55.231Z,11.40
2023-03-08T01:15:31.530Z,12.07
2023-03-08T01:18:08.737Z,11.82
2023-03-08T01:20:48.838Z,11.48
2023-03-08T01:23:27.330Z,10.45
2023-03-08T01:26:05.378Z,9.53
2023-03-08T01:28:40.514Z,9.68
2023-03-08T01:31:17.942Z,8.67
2023-03-08T01:33:54.296Z,8.07
2023-03-08T01:36:34.416Z,8.18
2023-03-08T01:39:13.053Z,8.30
2023-03-08T01:41:52.151Z,7.55
2023-03-08T01:44:26.830Z,7.38
2023-03-08T01:47:03.027Z,7.28
2023-03-08T01:49:50.755Z,6.40
2023-03-08T01:52:29.665Z,6.40
2023-03-08T01:55:07.037Z,6.03
2023-03-08T01:57:45.796Z,5.78
2023-03-08T02:00:23.529Z,5.85
2023-03-08T02:03:02.293Z,6.30
2023-03-08T02:05:40.876Z,6.13
2023-03-08T02:08:27.199Z,6.10
2023-03-08T02:11:04.904Z,6.40
2023-03-08T02:13:42.660Z,6.47
2023-03-08T02:16:18.934Z,6.35
2023-03-08T02:18:58.490Z,5.57
2023-03-08T02:21:35.017Z,6.05
2023-03-08T02:24:22.273Z,4.95
2023-03-08T02:26:59.207Z,4.85
2023-03-08T02:29:37.307Z,3.75
2023-03-08T02:32:12.659Z,2.80
2023-03-08T02:34:51.311Z,3.05
2023-03-08T02:37:26.105Z,2.92
2023-03-08T02:40:05.362Z,2.75
2023-03-08T02:42:40.951Z,2.72
2023-03-08T02:45:18.981Z,2.80
2023-03-08T02:47:54.219Z,2.85
2023-03-08T02:50:31.848Z,3.10
2023-03-08T02:53:07.040Z,2.47
2023-03-08T02:55:50.021Z,3.05
2023-03-08T02:58:26.303Z,2.28
2023-03-08T03:01:02.692Z,2.63
2023-03-08T03:03:40.899Z,2.53
2023-03-08T03:06:19.183Z,2.85
2023-03-08T03:08:57.589Z,3.08
2023-03-08T03:11:36.720Z,3.10
2023-03-08T03:14:12.138Z,2.90
2023-03-08T03:16:51.273Z,2.80
2023-03-08T03:19:27.880Z,3.20
2023-03-08T03:22:03.959Z,3.58
2023-03-08T03:24:46.223Z,3.42
2023-03-08T03:27:27.838Z,3.25
2023-03-08T03:30:03.494Z,2.75
2023-03-08T03:32:41.316Z,3.70
2023-03-08T03:35:17.397Z,2.97
2023-03-08T03:37:55.216Z,3.37
2023-03-08T03:40:30.628Z,3.50
2023-03-08T03:43:14.537Z,3.03
2023-03-08T03:45:59.094Z,3.75
2023-03-08T03:48:35.330Z,3.40
2023-03-08T03:51:15.434Z,3.00
2023-03-08T03:53:54.290Z,3.30
2023-03-08T03:56:32.258Z,2.70
2023-03-08T03:59:12.542Z,3.95
2023-03-08T04:01:48.299Z,3.47
2023-03-08T04:07:11.047Z,3.25
2023-03-08T04:09:50.525Z,3.55
2023-03-08T04:15:03.625Z,3.75
2023-03-08T04:17:41.811Z,3.10
2023-03-08T04:23:01.059Z,3.50
2023-03-08T04:25:43.224Z,3.35
2023-03-08T04:28:24.334Z,3.20
2023-03-08T04:31:14.815Z,3.80
2023-03-08T04:33:51.773Z,3.65
2023-03-08T04:36:28.291Z,3.85
2023-03-08T04:39:06.054Z,3.80
2023-03-08T04:41:41.590Z,4.18
2023-03-08T04:44:29.456Z,3.90
2023-03-08T04:47:03.689Z,4.28
2023-03-08T04:49:49.278Z,5.00
2023-03-08T04:52:25.859Z,4.83
2023-03-08T04:55:03.642Z,6.28
2023-03-08T04:57:40.570Z,5.63
2023-03-08T05:00:21.998Z,5.20
2023-03-08T05:02:59.694Z,5.38
2023-03-08T05:05:39.012Z,5.60
2023-03-08T05:08:17.191Z,5.82
2023-03-08T05:10:53.098Z,4.90
2023-03-08T05:13:29.560Z,5.20
2023-03-08T05:16:05.353Z,5.10
2023-03-08T05:18:44.612Z,5.63
2023-03-08T05:21:24.680Z,6.05
2023-03-08T05:24:08.752Z,6.03
2023-03-08T05:26:48.903Z,5.65
2023-03-08T05:29:25.040Z,5.85
2023-03-08T05:32:09.031Z,7.10
2023-03-08T05:34:46.705Z,6.80
2023-03-08T05:37:32.956Z,7.50
2023-03-08T05:40:14.376Z,7.85
2023-03-08T05:42:51.928Z,7.93
2023-03-08T05:45:27.265Z,6.73
2023-03-08T05:48:07.349Z,6.85
2023-03-08T05:50:46.269Z,7.70
2023-03-08T05:53:27.936Z,6.82
2023-03-08T05:56:12.293Z,6.93
2023-03-08T05:58:52.097Z,7.32
2023-03-08T06:01:29.381Z,6.88
2023-03-08T06:04:14.032Z,6.00
2023-03-08T06:06:53.166Z,5.75
2023-03-08T06:09:37.785Z,6.68
2023-03-08T06:12:15.005Z,6.25
2023-03-08T06:14:57.704Z,6.18
2023-03-08T06:17:41.446Z,6.82
2023-03-08T06:20:18.564Z,5.88
2023-03-08T06:22:59.158Z,5.40
2023-03-08T06:25:40.228Z,5.50
2023-03-08T06:28:16.031Z,6.55
2023-03-08T06:30:53.711Z,6.93
2023-03-08T06:33:27.861Z,6.80
2023-03-08T06:36:06.905Z,7.70
2023-03-08T06:38:43.441Z,7.53
2023-03-08T06:41:23.095Z,8.45
2023-03-08T06:44:04.429Z,7.68
2023-03-08T06:46:39.104Z,6.60
2023-03-08T06:49:16.926Z,5.93
2023-03-08T06:51:53.573Z,6.35
2023-03-08T06:54:31.446Z,5.57
2023-03-08T06:57:10.841Z,4.85
2023-03-08T06:59:48.515Z,5.85
2023-03-08T07:02:23.608Z,5.55
2023-03-08T07:04:59.358Z,5.97
2023-03-08T07:07:35.988Z,5.72
2023-03-08T07:10:15.165Z,5.03
2023-03-08T07:12:53.682Z,6.03
2023-03-08T07:15:29.615Z,6.13
2023-03-08T07:18:05.967Z,5.63
2023-03-08T07:20:42.312Z,5.50
2023-03-08T07:23:19.221Z,6.28
2023-03-08T07:25:56.552Z,5.38
2023-03-08T07:28:33.186Z,5.13
2023-03-08T07:31:16.042Z,4.90
2023-03-08T07:33:52.477Z,5.37
2023-03-08T07:36:27.657Z,5.03
2023-03-08T07:39:05.839Z,5.63
2023-03-08T07:41:41.287Z,5.15
2023-03-08T07:44:15.655Z,5.15
2023-03-08T07:46:55.350Z,5.20
2023-03-08T07:49:32.649Z,5.25
2023-03-08T07:52:09.124Z,6.10
2023-03-08T07:54:44.811Z,6.55
2023-03-08T07:57:20.717Z,7.18
2023-03-08T08:00:00.426Z,5.88
2023-03-08T08:02:35.111Z,6.22
2023-03-08T08:05:15.990Z,6.38
2023-03-08T08:07:51.406Z,5.38
2023-03-08T08:10:26.810Z,5.22
2023-03-08T08:13:02.463Z,4.30
2023-03-08T08:15:39.133Z,5.05
2023-03-08T08:18:14.291Z,5.07
2023-03-08T08:20:54.568Z,5.13
2023-03-08T08:23:34.773Z,5.35
2023-03-08T08:26:10.840Z,4.95
2023-03-08T08:28:46.976Z,4.47
2023-03-08T08:34:00.158Z,4.30
2023-03-08T08:36:42.292Z,5.27
2023-03-08T08:39:17.983Z,4.78
2023-03-08T08:44:57.749Z,5.63
2023-03-08T08:47:33.354Z,6.40
2023-03-08T08:50:08.968Z,5.22
2023-03-08T08:52:49.361Z,4.80
2023-03-08T08:55:23.268Z,4.13
2023-03-08T08:58:02.033Z,4.10
2023-03-08T09:00:37.391Z,4.80
2023-03-08T09:03:13.445Z,4.07
2023-03-08T09:05:48.787Z,4.70
2023-03-08T09:08:26.926Z,4.00
2023-03-08T09:11:07.733Z,4.93
2023-03-08T09:13:43.692Z,4.40
2023-03-08T09:16:23.349Z,4.00
2023-03-08T09:19:01.157Z,4.40
2023-03-08T09:21:39.555Z,3.75
2023-03-08T09:24:20.135Z,3.65
2023-03-08T09:26:55.807Z,4.25
2023-03-08T09:29:35.065Z,3.87
2023-03-08T09:32:12.754Z,4.50
2023-03-08T09:34:49.237Z,4.40
2023-03-08T09:37:25.827Z,5.72
2023-03-08T09:40:09.842Z,5.15
2023-03-08T09:42:48.087Z,4.78
2023-03-08T09:45:23.534Z,4.85
2023-03-08T09:48:05.438Z,4.22
2023-03-08T09:50:43.178Z,5.10
2023-03-08T09:53:43.127Z,4.25
2023-03-08T09:56:35.342Z,4.47
2023-03-08T09:59:11.288Z,4.20
2023-03-08T10:01:48.784Z,4.72
2023-03-08T10:04:23.258Z,4.35
2023-03-08T10:07:07.211Z,4.60
2023-03-08T10:09:45.045Z,4.97
2023-03-08T10:12:26.835Z,6.23
2023-03-08T10:15:06.949Z,5.20
2023-03-08T10:17:46.001Z,5.20
2023-03-08T10:20:21.689Z,5.22
2023-03-08T10:23:00.999Z,5.65
2023-03-08T10:25:37.212Z,5.78
2023-03-08T10:28:19.055Z,6.45
2023-03-08T10:30:54.954Z,5.75
2023-03-08T10:33:35.292Z,5.45
2023-03-08T10:36:13.917Z,5.85
2023-03-08T10:38:47.908Z,5.63
2023-03-08T10:41:22.741Z,4.68
2023-03-08T10:44:01.832Z,4.32
2023-03-08T10:46:37.440Z,4.70
2023-03-08T10:49:18.815Z,5.32
2023-03-08T10:51:53.260Z,5.35
2023-03-08T10:54:30.700Z,5.35
2023-03-08T10:57:07.856Z,4.97
2023-03-08T10:59:45.633Z,6.03
2023-03-08T11:02:23.233Z,5.18
2023-03-08T11:04:59.197Z,5.80
2023-03-08T11:07:36.115Z,6.15
2023-03-08T11:10:10.785Z,6.68
2023-03-08T11:12:48.858Z,6.50
2023-03-08T11:15:22.946Z,6.20
2023-03-08T11:18:05.692Z,7.20
2023-03-08T11:20:46.063Z,7.00
2023-03-08T11:23:26.509Z,7.85
2023-03-08T11:26:03.025Z,9.50
2023-03-08T11:28:56.848Z,9.30
2023-03-08T11:31:36.807Z,9.63
2023-03-08T11:34:30.303Z,9.95
2023-03-08T11:37:13.067Z,10.00
2023-03-08T11:39:50.207Z,9.82
2023-03-08T11:42:30.383Z,10.38
2023-03-08T11:45:19.873Z,10.93
2023-03-08T11:48:15.968Z,10.17
2023-03-08T11:50:53.197Z,12.30
2023-03-08T11:53:39.018Z,10.37
2023-03-08T11:56:29.751Z,10.80
2023-03-08T11:59:07.621Z,8.73
2023-03-08T12:01:48.261Z,9.23
2023-03-08T12:04:29.745Z,10.43
2023-03-08T12:07:10.032Z,12.67
2023-03-08T12:09:54.878Z,15.95
2023-03-08T12:12:32.385Z,11.15
2023-03-08T12:15:11.452Z,11.65
2023-03-08T12:17:47.797Z,9.93
2023-03-08T12:20:24.682Z,8.05
2023-03-08T12:23:06.410Z,8.40
2023-03-08T12:25:45.345Z,9.70
2023-03-08T12:28:24.693Z,8.68
2023-03-08T12:31:18.154Z,8.00
2023-03-08T12:34:00.231Z,8.70
2023-03-08T12:36:43.146Z,8.45
2023-03-08T12:39:29.535Z,8.77
2023-03-08T12:42:04.735Z,7.72
2023-03-08T12:44:46.276Z,7.28
2023-03-08T12:47:25.891Z,6.95
2023-03-08T12:50:01.861Z,6.95
2023-03-08T12:52:38.309Z,7.22
2023-03-08T12:55:22.149Z,9.02
2023-03-08T12:57:58.553Z,9.45
2023-03-08T13:00:39.541Z,10.13
2023-03-08T13:03:14.033Z,10.75
2023-03-08T13:05:52.624Z,10.70
2023-03-08T13:08:36.077Z,9.02
2023-03-08T13:11:09.792Z,11.70
2023-03-08T13:13:52.463Z,9.65
2023-03-08T13:16:40.017Z,11.18
2023-03-08T13:19:22.141Z,13.02
2023-03-08T13:22:03.006Z,9.13
2023-03-08T13:24:43.022Z,9.82
2023-03-08T13:27:28.868Z,10.70
2023-03-08T13:30:06.408Z,10.77
2023-03-08T13:32:44.392Z,16.20
2023-03-08T13:35:20.506Z,15.05
2023-03-08T13:37:59.545Z,13.35
2023-03-08T13:40:34.984Z,11.95
2023-03-08T13:43:15.130Z,11.05
2023-03-08T13:45:51.241Z,10.65
2023-03-08T13:51:05.095Z,10.65
2023-03-08T13:53:43.793Z,10.60
2023-03-08T13:56:27.142Z,11.73
2023-03-08T13:59:04.029Z,11.48
2023-03-08T14:01:51.768Z,13.80
2023-03-08T14:04:27.251Z,12.93
2023-03-08T14:07:08.332Z,11.00
2023-03-08T14:09:46.142Z,10.90
2023-03-08T14:12:24.723Z,11.75
2023-03-08T14:15:04.084Z,10.50
2023-03-08T14:17:38.252Z,11.95
2023-03-08T14:20:23.949Z,11.70
2023-03-08T14:23:18.451Z,11.45
2023-03-08T14:26:03.593Z,11.23
2023-03-08T14:28:43.953Z,11.43
2023-03-08T14:31:18.062Z,11.70
2023-03-08T14:34:02.522Z,9.93
2023-03-08T14:36:40.090Z,9.90
2023-03-08T14:39:24.103Z,10.25
2023-03-08T14:42:00.190Z,11.43
2023-03-08T14:47:22.024Z,11.07
2023-03-08T14:50:06.950Z,11.13
2023-03-08T14:52:53.903Z,13.70
2023-03-08T14:55:37.246Z,14.43
2023-03-08T14:58:16.486Z,13.65
2023-03-08T15:00:57.481Z,12.70
2023-03-08T15:03:33.654Z,13.55
2023-03-08T15:06:14.107Z,13.13
2023-03-08T15:08:49.418Z,13.10
2023-03-08T15:14:05.983Z,12.45
2023-03-08T15:16:42.824Z,15.15
2023-03-08T15:19:17.844Z,15.15
2023-03-08T15:21:54.074Z,15.90
2023-03-08T15:24:30.107Z,17.92
2023-03-08T15:29:43.247Z,15.75
2023-03-08T15:32:18.780Z,16.20
2023-03-08T15:34:54.712Z,15.98
2023-03-08T15:37:35.624Z,17.35
2023-03-08T15:40:16.784Z,15.25
2023-03-08T15:42:51.690Z,17.10
2023-03-08T15:45:31.324Z,18.42
2023-03-08T15:48:10.636Z,18.42
2023-03-08T15:50:46.383Z,19.90
2023-03-08T15:53:34.902Z,18.65
2023-03-08T15:56:13.930Z,19.25
2023-03-08T15:58:50.788Z,17.95
2023-03-08T16:01:29.022Z,18.13
2023-03-08T16:04:12.407Z,18.52
2023-03-08T16:06:48.499Z,20.92
2023-03-08T16:11:59.893Z,19.35
2023-03-08T16:14:38.101Z,23.13
2023-03-08T16:17:16.816Z,26.25
2023-03-08T16:19:52.647Z,30.30
2023-03-08T16:22:29.063Z,24.92
2023-03-08T16:25:13.355Z,25.20
2023-03-08T16:27:50.690Z,22.42
2023-03-08T16:30:27.007Z,23.57
2023-03-08T16:33:07.991Z,24.48
2023-03-08T16:36:02.623Z,23.87
2023-03-08T16:38:38.119Z,23.33
2023-03-08T16:41:14.672Z,26.92
2023-03-08T16:43:49.649Z,29.58
2023-03-08T16:46:27.407Z,28.50
2023-03-08T16:49:07.182Z,29.58
2023-03-08T16:51:44.938Z,30.10
2023-03-08T16:54:22.287Z,31.13
2023-03-08T16:57:04.843Z,26.45
2023-03-08T16:59:52.119Z,26.38
2023-03-08T17:02:31.062Z,29.17
2023-03-08T17:05:14.369Z,26.73
2023-03-08T17:07:50.867Z,27.10
2023-03-08T17:10:28.534Z,28.90
2023-03-08T17:13:07.966Z,24.35
2023-03-08T17:15:46.521Z,22.03
2023-03-08T17:18:27.284Z,21.63
2023-03-08T17:21:08.433Z,18.50
2023-03-08T17:23:43.307Z,20.47
2023-03-08T17:26:20.021Z,24.85
2023-03-08T17:28:55.030Z,23.90
2023-03-08T17:31:34.741Z,24.00
2023-03-08T17:34:10.384Z,21.42
2023-03-08T17:36:47.666Z,21.15
2023-03-08T17:39:24.817Z,19.70
2023-03-08T17:42:07.810Z,20.00
2023-03-08T17:44:46.449Z,19.60
2023-03-08T17:47:25.462Z,18.10
2023-03-08T17:49:59.866Z,20.55
2023-03-08T17:52:39.864Z,49.53
2023-03-08T17:55:15.597Z,24.27
2023-03-08T17:57:53.106Z,24.35
2023-03-08T18:00:32.111Z,26.55
2023-03-08T18:03:10.009Z,27.50
2023-03-08T18:05:50.966Z,28.85
2023-03-08T18:08:29.160Z,29.83
2023-03-08T18:11:04.069Z,47.70
2023-03-08T18:13:40.778Z,30.55
2023-03-08T18:16:19.087Z,29.40
2023-03-08T18:18:55.078Z,35.30
2023-03-08T18:24:09.102Z,38.35
2023-03-08T18:26:45.597Z,28.77
2023-03-08T18:29:23.348Z,25.43
2023-03-08T18:31:59.043Z,31.00
2023-03-08T18:34:35.648Z,32.23
2023-03-08T18:37:11.827Z,31.50
2023-03-08T18:39:49.520Z,37.33
2023-03-08T18:42:25.153Z,36.08
2023-03-08T18:45:02.117Z,34.70
2023-03-08T18:47:38.799Z,29.73
2023-03-08T18:50:20.647Z,27.43
2023-03-08T18:52:57.114Z,33.53
2023-03-08T18:55:38.012Z,27.80
2023-03-08T18:58:16.643Z,27.45
2023-03-08T19:00:55.109Z,30.83
2023-03-08T19:03:30.374Z,30.30
2023-03-08T19:06:05.635Z,29.00
2023-03-08T19:08:40.820Z,31.37
2023-03-08T19:11:20.855Z,32.08
2023-03-08T19:13:57.507Z,33.87
2023-03-08T19:16:38.422Z,30.42
2023-03-08T19:19:14.833Z,32.70
2023-03-08T19:21:51.920Z,29.07
2023-03-08T19:24:31.176Z,28.38
2023-03-08T19:27:13.847Z,36.58
2023-03-08T19:29:48.580Z,31.55
2023-03-08T19:32:24.164Z,30.95
2023-03-08T19:34:58.583Z,30.05
2023-03-08T19:37:36.222Z,30.85
2023-03-08T19:40:16.071Z,29.83
2023-03-08T19:42:59.891Z,29.02
2023-03-08T19:45:35.715Z,27.25
2023-03-08T19:48:12.759Z,27.80
2023-03-08T19:50:51.678Z,26.27
2023-03-08T19:53:28.490Z,30.35
2023-03-08T19:56:03.903Z,42.08
2023-03-08T19:58:43.213Z,34.95
2023-03-08T20:01:20.098Z,30.35
2023-03-08T20:03:56.616Z,27.08
2023-03-08T20:06:34.678Z,24.77
2023-03-08T20:09:09.460Z,28.25
2023-03-08T20:11:46.972Z,27.02
2023-03-08T20:14:21.128Z,34.95
2023-03-08T20:17:04.994Z,35.50
2023-03-08T20:19:42.336Z,42.15
2023-03-08T20:22:18.176Z,34.78
2023-03-08T20:24:56.594Z,29.65
2023-03-08T20:27:34.093Z,27.98
2023-03-08T20:30:15.580Z,33.25
2023-03-08T20:32:54.838Z,31.20
2023-03-08T20:35:31.921Z,31.35
2023-03-08T20:38:08.021Z,37.50
2023-03-08T20:43:23.166Z,32.72
2023-03-08T20:46:01.915Z,29.83
2023-03-08T20:48:36.115Z,31.98
2023-03-08T20:51:16.747Z,31.60
2023-03-08T20:53:53.179Z,31.65
2023-03-08T20:56:31.628Z,29.60
2023-03-08T20:59:06.393Z,34.40
2023-03-08T21:01:45.436Z,31.08
2023-03-08T21:04:20.013Z,35.70
2023-03-08T21:06:58.758Z,34.30
2023-03-08T21:09:34.322Z,34.03
2023-03-08T21:12:11.935Z,32.27
2023-03-08T21:14:47.149Z,32.70
2023-03-08T21:17:26.925Z,31.63
2023-03-08T21:20:03.457Z,35.42
2023-03-08T21:22:44.612Z,34.92
2023-03-08T21:25:20.325Z,34.92
2023-03-08T21:27:57.365Z,31.20
2023-03-08T21:30:34.208Z,39.38
2023-03-08T21:33:12.774Z,33.50
2023-03-08T21:35:48.631Z,33.72
2023-03-08T21:38:29.170Z,33.47
2023-03-08T21:41:07.095Z,30.58
2023-03-08T21:43:43.424Z,34.70
2023-03-08T21:46:22.255Z,36.58
2023-03-08T21:49:00.740Z,36.83
2023-03-08T21:51:37.643Z,37.60
2023-03-08T21:54:16.888Z,37.57
2023-03-08T21:56:53.617Z,32.42
2023-03-08T21:59:30.022Z,31.60
2023-03-08T22:04:44.616Z,31.98
2023-03-08T22:07:18.904Z,27.77
2023-03-08T22:09:58.580Z,33.13
2023-03-08T22:12:36.469Z,32.25
2023-03-08T22:15:16.529Z,31.90
2023-03-08T22:17:51.486Z,29.83
2023-03-08T22:20:29.393Z,29.73
2023-03-08T22:23:04.254Z,25.80
2023-03-08T22:25:44.590Z,28.27
2023-03-08T22:28:22.286Z,23.00
2023-03-08T22:31:00.005Z,27.45
2023-03-08T22:33:35.415Z,28.08
2023-03-08T22:36:14.914Z,22.35
2023-03-08T22:38:51.069Z,24.63
2023-03-08T22:41:31.931Z,26.15
2023-03-08T22:44:07.101Z,20.83
2023-03-08T22:46:42.909Z,23.13
2023-03-08T22:49:20.096Z,20.27
2023-03-08T22:51:56.283Z,28.23
2023-03-08T22:54:33.858Z,26.55
2023-03-08T22:57:14.088Z,30.17
2023-03-08T22:59:51.043Z,29.60
2023-03-08T23:02:28.002Z,32.05
2023-03-08T23:05:04.639Z,33.80
2023-03-08T23:07:40.227Z,28.20
2023-03-08T23:10:17.393Z,32.60
2023-03-08T23:13:01.747Z,31.50
2023-03-08T23:15:40.246Z,27.65
2023-03-08T23:18:20.451Z,33.65
2023-03-08T23:20:56.578Z,28.98
2023-03-08T23:23:32.417Z,30.80
2023-03-08T23:26:07.776Z,26.97
2023-03-08T23:28:44.987Z,26.70
2023-03-08T23:31:24.887Z,27.15
2023-03-08T23:34:00.929Z,28.05
2023-03-08T23:36:37.470Z,27.35
2023-03-08T23:39:16.329Z,28.93
2023-03-08T23:41:51.675Z,29.80
2023-03-08T23:44:26.753Z,29.13
2023-03-08T23:47:06.441Z,29.42
2023-03-08T23:49:44.729Z,30.15
2023-03-08T23:52:21.403Z,30.30
2023-03-08T23:54:56.970Z,31.58
2023-03-08T23:57:36.608Z,28.57
